Time;durP1;ratioP1;P1;durP2;ratioP2;P2;SDS_P1;SDS_P2;PMS_P1;PMS_P2;Temp;Humidity;BMP_temperature;BMP_pressure;BME280_temperature;BME280_humidity;BME280_pressure;Samples;Min_cycle;Max_cycle;Signal;HPM_P1;HPM_P2
2023/08/19 00:00:35;;;;;;;8.80;8.00;;;;;;;20.37;83.58;100720.41;102838;275;105385;-55
2023/08/19 00:03:32;;;;;;;9.40;7.30;;;;;;;20.35;83.65;100719.44;102787;275;112835;-53
2023/08/19 00:06:34;;;;;;;9.60;7.70;;;;;;;20.33;83.85;100723.02;103020;275;96279;-56
2023/08/19 00:09:10;;;;;;;8.80;7.70;;;;;;;20.37;83.77;100718.81;103056;275;95598;-56
2023/08/19 00:11:49;;;;;;;8.90;8.00;;;;;;;20.33;83.82;100722.32;102594;277;118680;-55
2023/08/19 00:14:24;;;;;;;9.00;8.10;;;;;;;20.32;83.84;100728.55;102866;275;104287;-55
2023/08/19 00:17:04;;;;;;;8.90;8.00;;;;;;;20.32;84.01;100731.22;102812;275;112667;-56
2023/08/19 00:19:43;;;;;;;9.10;8.20;;;;;;;20.31;83.93;100734.45;102835;275;96401;-56
2023/08/19 00:22:21;;;;;;;8.80;8.10;;;;;;;20.28;84.11;100733.89;102806;275;97424;-57
2023/08/19 00:24:56;;;;;;;9.60;8.60;;;;;;;20.23;84.17;100735.63;102807;275;121109;-57
2023/08/19 00:27:37;;;;;;;9.70;8.70;;;;;;;20.21;84.30;100736.91;102807;275;105708;-56
2023/08/19 00:30:14;;;;;;;11.20;9.80;;;;;;;20.16;84.43;100733.77;102845;275;114024;-56
2023/08/19 00:32:50;;;;;;;9.60;8.30;;;;;;;20.14;84.41;100730.13;102837;275;95500;-55
2023/08/19 00:35:25;;;;;;;9.00;8.10;;;;;;;20.11;84.47;100728.19;103151;275;96776;-57
2023/08/19 00:38:02;;;;;;;9.50;8.70;;;;;;;19.99;84.70;100728.52;103314;275;119828;-58
2023/08/19 00:40:50;;;;;;;9.20;8.50;;;;;;;19.93;84.89;100729.65;103382;275;104891;-58
2023/08/19 00:43:37;;;;;;;9.90;8.90;;;;;;;19.89;84.78;100730.76;103372;275;113376;-58
2023/08/19 00:46:20;;;;;;;10.00;9.10;;;;;;;19.87;84.85;100730.30;102826;275;96950;-54
2023/08/19 00:49:13;;;;;;;9.70;8.80;;;;;;;19.84;85.04;100725.29;102873;275;97760;-54
2023/08/19 00:51:48;;;;;;;9.70;8.80;;;;;;;19.78;85.03;100721.16;102792;275;120608;-56
2023/08/19 00:54:25;;;;;;;9.60;8.50;;;;;;;19.75;85.25;100722.58;102836;275;104641;-56
2023/08/19 00:57:04;;;;;;;11.30;9.80;;;;;;;19.70;85.41;100719.37;102804;275;114101;-55
2023/08/19 00:59:46;;;;;;;9.60;8.70;;;;;;;19.66;85.45;100709.91;102879;277;94565;-58
2023/08/19 01:02:30;;;;;;;11.50;9.10;;;;;;;19.62;85.56;100705.83;103672;275;97476;-58
2023/08/19 01:05:07;;;;;;;10.00;9.10;;;;;;;19.60;85.58;100705.57;102981;275;121198;-53
2023/08/19 01:07:55;;;;;;;9.80;9.00;;;;;;;19.56;85.76;100706.30;102814;275;104957;-54
2023/08/19 01:10:40;;;;;;;10.10;9.10;;;;;;;19.50;85.99;100705.60;102826;275;114235;-56
2023/08/19 01:13:30;;;;;;;10.10;9.20;;;;;;;19.49;86.16;100715.62;102796;275;95930;-56
2023/08/19 01:16:19;;;;;;;9.80;8.90;;;;;;;19.44;86.22;100719.79;102855;275;97311;-53
2023/08/19 01:18:57;;;;;;;10.90;9.70;;;;;;;19.43;86.36;100718.08;102874;275;120242;-54
2023/08/19 01:21:37;;;;;;;10.10;9.10;;;;;;;19.42;86.60;100720.52;102862;268;105838;-56
2023/08/19 01:24:22;;;;;;;9.90;8.80;;;;;;;19.42;86.62;100720.57;102907;275;113852;-57
2023/08/19 01:27:05;;;;;;;10.60;9.70;;;;;;;19.39;86.52;100720.39;103527;275;97086;-58
2023/08/19 01:29:43;;;;;;;11.00;10.00;;;;;;;19.38;86.62;100721.38;103290;275;98483;-55
2023/08/19 01:32:23;;;;;;;10.80;9.80;;;;;;;19.40;86.85;100724.80;102832;275;120773;-56
2023/08/19 01:35:00;;;;;;;10.80;9.70;;;;;;;19.36;86.89;100724.29;102843;275;104392;-53
2023/08/19 01:37:43;;;;;;;10.10;9.10;;;;;;;19.31;86.90;100726.19;102811;275;113802;-53
2023/08/19 01:40:22;;;;;;;10.60;9.50;;;;;;;19.25;87.09;100730.55;102810;275;95709;-53
2023/08/19 01:43:03;;;;;;;10.20;9.20;;;;;;;19.16;87.20;100731.53;102827;275;98665;-53
2023/08/19 01:45:43;;;;;;;10.10;9.10;;;;;;;19.12;87.28;100733.02;102825;275;120633;-54
2023/08/19 01:48:19;;;;;;;9.70;8.80;;;;;;;19.05;87.42;100728.05;102820;275;103104;-53
2023/08/19 01:50:59;;;;;;;10.50;9.50;;;;;;;19.07;87.61;100728.14;102854;275;114925;-56
2023/08/19 01:53:39;;;;;;;10.50;9.40;;;;;;;19.09;87.84;100728.95;102834;275;95992;-57
2023/08/19 01:56:16;;;;;;;10.30;9.30;;;;;;;19.06;87.73;100729.64;102814;275;98026;-55
2023/08/19 01:58:55;;;;;;;12.10;9.90;;;;;;;19.06;87.67;100722.77;102830;275;119978;-56
2023/08/19 02:01:36;;;;;;;10.80;9.70;;;;;;;19.07;87.84;100724.90;103750;275;104896;-58
2023/08/19 02:04:17;;;;;;;11.20;10.20;;;;;;;19.07;87.88;100721.90;103695;275;112022;-53
2023/08/19 02:06:53;;;;;;;10.60;9.60;;;;;;;19.08;87.97;100720.83;102801;264;96990;-53
2023/08/19 02:09:34;;;;;;;10.60;9.60;;;;;;;19.09;88.02;100722.66;103088;275;98145;-57
2023/08/19 02:12:12;;;;;;;10.60;9.60;;;;;;;19.09;88.23;100723.05;103838;264;118479;-58
2023/08/19 02:14:48;;;;;;;10.90;9.20;;;;;;;19.11;88.18;100719.36;103462;276;104649;-53
2023/08/19 02:17:25;;;;;;;10.50;9.60;;;;;;;19.11;88.28;100715.52;102829;275;113799;-54
2023/08/19 02:20:01;;;;;;;10.10;9.20;;;;;;;19.09;88.49;100711.03;103295;275;96937;-57
2023/08/19 02:22:42;;;;;;;11.70;10.60;;;;;;;19.09;88.63;100709.08;103637;275;95542;-58
2023/08/19 02:25:22;;;;;;;10.30;9.30;;;;;;;19.10;88.74;100708.12;103250;275;118387;-55
2023/08/19 02:27:59;;;;;;;10.90;9.70;;;;;;;19.11;88.74;100706.61;102834;275;105877;-56
2023/08/19 02:30:40;;;;;;;11.20;10.20;;;;;;;19.17;88.83;100705.03;102822;272;113784;-53
2023/08/19 02:33:21;;;;;;;11.40;10.20;;;;;;;19.18;88.93;100708.09;102802;275;97646;-53
2023/08/19 02:35:57;;;;;;;11.20;10.00;;;;;;;19.19;89.10;100709.64;103650;276;98102;-58
2023/08/19 02:38:35;;;;;;;11.20;10.00;;;;;;;19.20;89.19;100715.52;103737;275;120219;-57
2023/08/19 02:41:21;;;;;;;11.60;10.40;;;;;;;19.20;89.19;100713.13;102649;275;103979;-56
2023/08/19 02:44:01;;;;;;;11.10;10.10;;;;;;;19.18;89.30;100709.18;102855;275;114138;-55
2023/08/19 02:46:43;;;;;;;11.40;10.30;;;;;;;19.18;89.33;100709.56;102810;275;96130;-56
2023/08/19 02:49:24;;;;;;;11.10;10.00;;;;;;;19.14;89.36;100702.06;102865;275;97818;-53
2023/08/19 02:52:04;;;;;;;11.00;9.90;;;;;;;19.09;89.18;100695.59;102824;275;120906;-53
2023/08/19 02:54:42;;;;;;;12.20;9.90;;;;;;;19.05;89.19;100694.30;103197;275;106010;-57
2023/08/19 02:57:24;;;;;;;10.80;9.70;;;;;;;19.05;89.30;100694.34;103872;275;112053;-58
2023/08/19 03:00:04;;;;;;;11.70;10.50;;;;;;;19.04;89.43;100689.21;103462;275;95011;-53
2023/08/19 03:02:43;;;;;;;13.40;10.40;;;;;;;19.03;89.52;100686.83;102853;275;95666;-54
2023/08/19 03:05:26;;;;;;;11.60;10.50;;;;;;;19.01;89.88;100690.25;103557;275;119927;-57
2023/08/19 03:08:22;;;;;;;12.30;10.60;;;;;;;18.99;89.76;100695.08;103971;275;105364;-58
2023/08/19 03:11:05;;;;;;;11.80;10.50;;;;;;;19.01;89.90;100696.50;104019;275;114186;-58
2023/08/19 03:13:43;;;;;;;11.20;10.00;;;;;;;19.01;89.92;100700.61;103438;275;710455;-58
2023/08/19 03:16:24;;;;;;;11.80;10.40;;;;;;;19.00;90.02;100708.21;102784;277;96564;-54
2023/08/19 03:19:04;;;;;;;11.80;10.40;;;;;;;18.97;90.03;100712.94;102848;275;121539;-55
2023/08/19 03:21:43;;;;;;;11.10;10.10;;;;;;;18.94;90.00;100715.17;102805;264;105576;-56
2023/08/19 03:24:23;;;;;;;11.80;10.50;;;;;;;18.92;89.97;100718.13;102854;275;115101;-54
2023/08/19 03:27:04;;;;;;;11.50;10.20;;;;;;;18.91;90.05;100716.66;102805;275;96515;-54
2023/08/19 03:29:43;;;;;;;11.50;10.30;;;;;;;18.92;90.25;100716.05;102803;275;96876;-53
2023/08/19 03:32:20;;;;;;;10.70;9.70;;;;;;;18.96;90.29;100715.38;102840;275;119267;-53
2023/08/19 03:34:59;;;;;;;11.10;10.10;;;;;;;18.97;90.30;100717.14;103386;275;104666;-57
2023/08/19 03:37:45;;;;;;;10.80;9.70;;;;;;;18.99;90.43;100717.33;103751;275;112714;-58
2023/08/19 03:40:24;;;;;;;12.60;10.70;;;;;;;19.02;90.41;100721.23;103286;275;97174;-53
2023/08/19 03:42:59;;;;;;;13.00;10.60;;;;;;;19.07;90.63;100723.38;102819;275;97519;-54
2023/08/19 03:45:34;;;;;;;;;;;;;;;19.12;90.51;100725.73;102863;275;119552;-56
2023/08/19 03:48:07;;;;;;;;;;;;;;;19.14;90.69;100731.65;102770;275;105537;-57
2023/08/19 03:50:47;;;;;;;11.80;10.60;;;;;;;19.15;90.82;100729.30;102777;276;114868;-56
2023/08/19 03:53:23;;;;;;;11.80;10.60;;;;;;;19.18;90.87;100726.60;102740;276;96181;-56
2023/08/19 03:56:06;;;;;;;12.80;11.50;;;;;;;19.20;90.75;100724.68;104010;276;96937;-57
2023/08/19 03:58:53;;;;;;;12.00;10.80;;;;;;;19.25;90.69;100728.79;103590;276;121614;-57
2023/08/19 04:01:33;;;;;;;11.90;10.80;;;;;;;19.28;90.72;100731.52;102770;276;104769;-55
2023/08/19 04:04:13;;;;;;;11.50;10.50;;;;;;;19.32;90.61;100732.42;102779;276;114816;-53
2023/08/19 04:06:55;;;;;;;13.40;11.20;;;;;;;19.32;90.79;100733.63;102758;276;96300;-53
2023/08/19 04:09:31;;;;;;;12.10;10.80;;;;;;;19.34;90.73;100731.15;102771;276;96629;-56
2023/08/19 04:12:09;;;;;;;11.20;10.10;;;;;;;19.35;90.79;100731.35;102743;276;120965;-56
2023/08/19 04:14:47;;;;;;;11.50;10.20;;;;;;;19.34;90.71;100732.80;102799;276;106162;-53
2023/08/19 04:17:27;;;;;;;11.60;10.60;;;;;;;19.37;90.83;100736.60;102754;276;114900;-54
2023/08/19 04:20:09;;;;;;;11.20;10.00;;;;;;;19.37;90.81;100737.45;102719;276;95768;-56
2023/08/19 04:22:52;;;;;;;12.00;10.80;;;;;;;19.39;90.79;100738.10;102756;276;98180;-56
2023/08/19 04:25:34;;;;;;;11.10;10.10;;;;;;;19.42;90.62;100735.15;103742;276;120666;-57
2023/08/19 04:28:21;;;;;;;12.80;11.60;;;;;;;19.46;90.66;100733.89;104152;276;105423;-57
2023/08/19 04:31:05;;;;;;;12.00;10.90;;;;;;;19.49;90.67;100736.99;102947;276;114875;-53
2023/08/19 04:33:49;;;;;;;11.40;10.50;;;;;;;19.48;90.72;100733.78;102743;276;96635;-53
2023/08/19 04:36:29;;;;;;;11.90;10.70;;;;;;;19.50;90.55;100731.11;102796;276;97096;-56
2023/08/19 04:39:13;;;;;;;12.10;10.80;;;;;;;19.51;90.64;100733.04;102779;276;119810;-56
2023/08/19 04:41:51;;;;;;;11.80;10.70;;;;;;;19.50;90.61;100731.23;102737;276;104838;-55
2023/08/19 04:44:38;;;;;;;12.10;11.00;;;;;;;19.53;90.72;100736.27;102797;276;114183;-54
2023/08/19 04:47:16;;;;;;;12.20;10.60;;;;;;;19.56;90.76;100738.05;102725;276;95988;-54
2023/08/19 04:50:00;;;;;;;11.30;10.30;;;;;;;19.60;90.77;100745.48;102803;276;96466;-54
2023/08/19 04:52:38;;;;;;;11.40;10.40;;;;;;;19.65;90.82;100751.39;102756;276;120512;-53
2023/08/19 04:55:23;;;;;;;12.50;10.50;;;;;;;19.71;90.89;100756.80;103377;276;105239;-57
2023/08/19 04:58:02;;;;;;;12.00;10.80;;;;;;;19.84;91.26;100754.85;103786;276;112423;-58
2023/08/19 05:00:48;;;;;;;12.60;10.80;;;;;;;19.97;91.47;100753.91;103048;276;96211;-56
2023/08/19 05:03:27;;;;;;;11.50;10.30;;;;;;;20.13;91.28;100760.21;102744;276;98308;-56
2023/08/19 05:06:08;;;;;;;11.40;10.30;;;;;;;20.25;91.37;100760.28;102773;276;119606;-57
2023/08/19 05:08:45;;;;;;;11.90;10.50;;;;;;;20.40;91.16;100762.23;102522;276;105610;-58
2023/08/19 05:11:22;;;;;;;12.20;10.70;;;;;;;20.58;91.15;100762.02;102791;276;113892;-60
2023/08/19 05:14:03;;;;;;;11.40;10.20;;;;;;;20.80;91.05;100763.08;102785;276;96768;-58
2023/08/19 05:16:46;;;;;;;10.40;9.40;;;;;;;21.04;90.84;100762.92;102771;276;97805;-57
2023/08/19 05:19:24;;;;;;;10.80;9.80;;;;;;;21.24;90.35;100761.40;102831;276;119612;-60
2023/08/19 05:22:07;;;;;;;10.70;9.60;;;;;;;21.33;89.76;100756.50;102747;276;105059;-61
2023/08/19 05:24:45;;;;;;;10.80;9.80;;;;;;;21.37;89.39;100755.46;102700;276;114088;-60
2023/08/19 05:27:22;;;;;;;10.70;9.40;;;;;;;21.35;89.23;100756.69;102729;276;95429;-60
2023/08/19 05:29:58;;;;;;;10.30;9.30;;;;;;;21.45;89.38;100758.48;102752;276;97578;-60
2023/08/19 05:32:45;;;;;;;10.60;9.50;;;;;;;21.71;89.07;100760.25;102681;276;120941;-60
2023/08/19 05:35:24;;;;;;;10.20;9.30;;;;;;;21.95;88.99;100762.53;102766;276;105755;-59
2023/08/19 05:38:04;;;;;;;9.50;8.60;;;;;;;22.84;89.26;100762.02;102662;276;114205;-60
2023/08/19 05:40:42;;;;;;;9.70;8.80;;;;;;;24.35;87.04;100762.57;102789;276;96436;-57
2023/08/19 05:43:21;;;;;;;9.40;8.50;;;;;;;25.56;84.53;100761.67;102786;276;98879;-57
2023/08/19 05:45:56;;;;;;;9.10;8.10;;;;;;;26.65;82.54;100758.92;102823;276;121542;-60
2023/08/19 05:48:34;;;;;;;9.60;7.70;;;;;;;27.76;80.08;100762.80;102787;276;108011;-62
2023/08/19 05:51:13;;;;;;;8.60;7.30;;;;;;;28.53;76.28;100772.05;102830;276;114379;-61
2023/08/19 05:53:51;;;;;;;7.30;6.60;;;;;;;29.06;74.10;100764.60;102797;276;92392;-62
2023/08/19 05:56:31;;;;;;;7.60;6.50;;;;;;;29.62;72.08;100759.86;102895;276;98539;-57
2023/08/19 05:59:11;;;;;;;7.70;6.30;;;;;;;30.12;69.62;100761.52;102724;277;120087;-56
2023/08/19 06:01:49;;;;;;;9.90;6.10;;;;;;;30.51;67.85;100763.42;102578;277;105648;-55
2023/08/19 06:04:35;;;;;;;6.70;5.90;;;;;;;30.92;65.69;100757.46;102792;276;115125;-55
2023/08/19 06:07:21;;;;;;;7.40;6.30;;;;;;;31.22;62.53;100759.98;102810;276;93770;-55
2023/08/19 06:10:01;;;;;;;6.30;5.80;;;;;;;31.33;61.55;100762.99;102830;276;98117;-55
2023/08/19 06:12:39;;;;;;;6.60;6.00;;;;;;;31.91;60.40;100760.48;102773;276;120064;-55
2023/08/19 06:15:16;;;;;;;6.20;5.40;;;;;;;32.51;59.10;100761.55;102817;276;105028;-52
2023/08/19 06:17:54;;;;;;;8.20;5.70;;;;;;;33.19;58.31;100757.75;102752;276;114758;-53
2023/08/19 06:20:33;;;;;;;8.00;5.80;;;;;;;34.07;57.06;100755.77;102802;276;93649;-53
2023/08/19 06:23:09;;;;;;;7.90;5.60;;;;;;;34.43;53.89;100753.08;102746;276;97379;-58
2023/08/19 06:25:43;;;;;;;7.80;5.50;;;;;;;34.86;52.59;100759.09;102809;264;119829;-53
2023/08/19 06:28:20;;;;;;;5.90;4.90;;;;;;;35.39;51.61;100751.05;102832;276;103977;-53
2023/08/19 06:31:01;;;;;;;5.70;5.00;;;;;;;35.54;49.51;100755.69;102793;276;113878;-54
2023/08/19 06:33:38;;;;;;;6.50;5.10;;;;;;;34.88;49.02;100759.77;102779;276;95418;-52
2023/08/19 06:36:18;;;;;;;7.30;4.90;;;;;;;33.85;48.92;100762.73;102846;276;96156;-53
2023/08/19 06:39:07;;;;;;;6.20;5.10;;;;;;;32.23;49.14;100763.41;102801;276;120800;-56
2023/08/19 06:41:53;;;;;;;6.20;5.60;;;;;;;30.69;50.45;100756.47;102824;276;105744;-54
2023/08/19 06:44:31;;;;;;;7.30;5.50;;;;;;;29.91;52.26;100753.42;102828;276;113203;-54
2023/08/19 06:47:17;;;;;;;6.10;5.50;;;;;;;29.67;53.20;100746.72;102796;276;94295;-55
2023/08/19 06:49:57;;;;;;;7.30;5.90;;;;;;;29.46;53.93;100743.61;102858;276;97967;-55
2023/08/19 06:52:35;;;;;;;8.30;6.20;;;;;;;29.32;54.21;100749.38;102802;276;121629;-55
2023/08/19 06:55:13;;;;;;;6.50;5.90;;;;;;;29.12;54.58;100744.07;102862;276;105960;-56
2023/08/19 06:58:03;;;;;;;7.10;5.80;;;;;;;29.30;54.92;100742.80;102853;276;114028;-60
2023/08/19 07:00:44;;;;;;;6.60;5.70;;;;;;;29.56;55.00;100744.44;102803;276;94565;-55
2023/08/19 07:03:32;;;;;;;7.10;6.40;;;;;;;29.49;54.80;100741.89;102786;276;97693;-52
2023/08/19 07:06:10;;;;;;;7.90;6.20;;;;;;;29.30;54.70;100742.39;102822;276;119386;-53
2023/08/19 07:08:51;;;;;;;10.80;7.30;;;;;;;29.20;55.02;100742.17;102810;276;106770;-53
2023/08/19 07:11:36;;;;;;;6.90;6.10;;;;;;;29.44;55.01;100743.15;102823;276;114044;-57
2023/08/19 07:14:16;;;;;;;7.30;6.40;;;;;;;29.51;54.97;100744.73;102844;276;94099;-57
2023/08/19 07:17:03;;;;;;;7.00;6.30;;;;;;;29.69;55.12;100744.68;102887;276;96142;-53
2023/08/19 07:19:53;;;;;;;6.60;5.90;;;;;;;30.03;54.87;100747.89;102809;276;119690;-55
2023/08/19 07:22:39;;;;;;;6.70;6.10;;;;;;;31.03;54.48;100746.87;102810;276;105246;-54
2023/08/19 07:25:21;;;;;;;7.50;6.80;;;;;;;31.65;53.43;100749.14;102855;276;114732;-52
2023/08/19 07:28:04;;;;;;;8.40;6.90;;;;;;;31.94;52.08;100751.35;102758;276;93818;-54
2023/08/19 07:30:45;;;;;;;7.90;6.20;;;;;;;32.16;51.97;100756.47;102799;276;97818;-55
2023/08/19 07:33:23;;;;;;;6.70;5.90;;;;;;;32.78;51.43;100758.17;102784;276;120844;-54
2023/08/19 07:36:02;;;;;;;7.20;6.00;;;;;;;33.66;50.45;100761.38;102866;276;105226;-59
2023/08/19 07:38:40;;;;;;;7.50;6.60;;;;;;;34.57;49.28;100756.65;102789;276;114714;-55
2023/08/19 07:41:17;;;;;;;8.70;6.90;;;;;;;35.46;47.61;100757.19;102842;276;94556;-54
2023/08/19 07:43:59;;;;;;;7.00;6.40;;;;;;;35.75;46.30;100757.48;102756;276;96031;-55
2023/08/19 07:46:40;;;;;;;10.20;7.00;;;;;;;36.22;46.03;100758.30;102762;276;119136;-53
2023/08/19 07:49:21;;;;;;;6.90;5.30;;;;;;;36.89;44.72;100759.86;102829;276;103587;-54
2023/08/19 07:51:56;;;;;;;7.10;5.80;;;;;;;37.35;44.25;100755.76;102738;276;115125;-53
2023/08/19 07:54:33;;;;;;;6.30;5.80;;;;;;;37.77;43.11;100757.16;102794;276;94236;-55
2023/08/19 07:57:10;;;;;;;6.20;5.50;;;;;;;38.09;42.20;100749.06;102800;276;97683;-55
2023/08/19 07:59:47;;;;;;;11.60;6.50;;;;;;;38.49;41.61;100751.48;102797;276;120636;-56
2023/08/19 08:02:23;;;;;;;8.20;5.70;;;;;;;38.91;40.65;100749.97;102811;276;104328;-55
2023/08/19 08:05:03;;;;;;;6.90;6.10;;;;;;;39.03;39.99;100745.93;102789;276;114192;-53
2023/08/19 08:07:39;;;;;;;7.10;5.40;;;;;;;39.42;39.38;100741.48;102778;276;93275;-53
2023/08/19 08:10:16;;;;;;;6.10;5.50;;;;;;;39.75;38.93;100742.60;102833;276;97537;-58
2023/08/19 08:12:54;;;;;;;6.80;6.20;;;;;;;39.93;37.93;100742.03;102879;276;120877;-56
2023/08/19 08:15:33;;;;;;;6.20;5.70;;;;;;;40.02;37.57;100750.20;102806;276;104924;-54
2023/08/19 08:18:11;;;;;;;7.60;5.60;;;;;;;39.88;37.40;100743.08;102750;265;115298;-54
2023/08/19 08:20:54;;;;;;;8.70;5.60;;;;;;;40.11;37.44;100738.71;102777;276;94712;-52
2023/08/19 08:23:33;;;;;;;8.20;5.70;;;;;;;40.58;36.87;100737.66;102764;276;98951;-53
2023/08/19 08:26:11;;;;;;;6.30;5.70;;;;;;;40.68;36.41;100739.84;102814;276;121010;-54
2023/08/19 08:29:00;;;;;;;6.40;5.70;;;;;;;40.89;36.18;100740.29;102726;276;105847;-54
2023/08/19 08:31:40;;;;;;;9.20;5.30;;;;;;;41.10;35.68;100743.88;102781;276;113318;-54
2023/08/19 08:34:26;;;;;;;6.60;5.90;;;;;;;41.29;35.27;100740.06;102543;266;93576;-52
2023/08/19 08:37:03;;;;;;;7.50;6.10;;;;;;;41.21;34.70;100738.17;102819;276;97216;-52
2023/08/19 08:39:45;;;;;;;7.50;5.70;;;;;;;41.33;34.39;100738.83;102833;276;120082;-56
2023/08/19 08:42:25;;;;;;;6.80;5.40;;;;;;;41.32;34.30;100740.27;102874;276;105370;-56
2023/08/19 08:45:06;;;;;;;7.20;6.30;;;;;;;41.61;34.29;100742.02;102827;276;114633;-56
2023/08/19 08:47:43;;;;;;;6.50;5.80;;;;;;;41.67;33.62;100746.38;102856;276;93769;-56
2023/08/19 08:50:17;;;;;;;7.20;6.50;;;;;;;41.47;33.26;100749.60;102887;276;97488;-54
2023/08/19 08:52:53;;;;;;;6.20;5.60;;;;;;;41.32;33.17;100751.20;102772;276;119586;-54
2023/08/19 08:55:33;;;;;;;6.40;5.80;;;;;;;40.71;33.41;100745.05;102913;276;105154;-56
2023/08/19 08:58:14;;;;;;;7.70;5.80;;;;;;;40.21;33.98;100741.48;102848;276;113832;-55
2023/08/19 09:00:51;;;;;;;7.00;6.40;;;;;;;40.38;34.38;100743.34;102850;276;95101;-54
2023/08/19 09:03:36;;;;;;;6.00;5.30;;;;;;;40.29;34.21;100741.02;102827;276;97699;-53
2023/08/19 09:06:15;;;;;;;6.90;5.40;;;;;;;40.52;33.75;100739.11;102808;276;120217;-55
2023/08/19 09:09:02;;;;;;;7.60;6.20;;;;;;;40.38;33.69;100735.83;102828;276;104942;-54
2023/08/19 09:11:42;;;;;;;8.00;6.30;;;;;;;40.11;33.43;100725.60;102794;276;112757;-52
2023/08/19 09:14:24;;;;;;;7.00;6.30;;;;;;;39.67;34.10;100723.85;102831;276;94330;-55
2023/08/19 09:17:01;;;;;;;8.40;6.10;;;;;;;39.63;34.71;100722.66;102866;276;97739;-56
2023/08/19 09:19:44;;;;;;;7.60;6.20;;;;;;;39.56;34.70;100728.98;102923;276;121196;-53
2023/08/19 09:22:26;;;;;;;6.90;6.30;;;;;;;39.19;34.85;100729.95;102772;276;104965;-53
2023/08/19 09:25:09;;;;;;;8.70;6.40;;;;;;;38.64;35.18;100727.48;102669;276;113533;-56
2023/08/19 09:27:47;;;;;;;7.90;7.00;;;;;;;38.05;35.46;100728.16;102843;276;94651;-56
2023/08/19 09:30:38;;;;;;;10.70;6.90;;;;;;;37.37;36.10;100726.65;102770;276;97797;-53
2023/08/19 09:33:26;;;;;;;8.90;6.20;;;;;;;36.89;36.88;100734.20;102744;276;120149;-53
2023/08/19 09:36:09;;;;;;;9.90;6.90;;;;;;;36.72;37.37;100733.27;102721;276;104540;-53
2023/08/19 09:38:48;;;;;;;7.50;6.70;;;;;;;36.42;37.87;100729.52;102695;276;112886;-53
2023/08/19 09:41:28;;;;;;;8.40;6.30;;;;;;;36.06;38.32;100729.79;102717;264;93530;-54
2023/08/19 09:44:21;;;;;;;8.20;7.20;;;;;;;35.73;38.87;100729.71;102579;278;95528;-52
2023/08/19 09:47:00;;;;;;;8.80;6.80;;;;;;;35.35;39.62;100732.60;102692;276;120718;-51
2023/08/19 09:49:53;;;;;;;9.30;6.80;;;;;;;35.16;39.89;100737.13;102720;276;105906;-53
2023/08/19 09:52:43;;;;;;;9.10;6.90;;;;;;;34.98;40.51;100734.59;102705;276;114292;-53
2023/08/19 09:55:26;;;;;;;8.20;7.30;;;;;;;34.81;40.82;100738.60;102767;276;94090;-53
